1H2

Effingham County Memorial Airport

Effingham, Illinois, USA
METAR K1H2 172315Z AUTO 02004KT 5SM BR CLR 05/03 A3021 RMK AO2 T00500031
Observed Flight Rules
Nov-17 @ 23:15 UTC (21 minutes ago) Marginal Visual Flight Rules
Wind Visibility Clouds Conditions
20° at 4 knots 5 miles
  • Clear skies
  • Mist
Temperatures Readings
Current 5°C / 41°F
Dewpoint 3°C / 37°F
Humidity 87%
Altimeter 30.21" Hg
Pressure 1023 hPa
Elevation 179
METAR K1H2 172315Z AUTO 02004KT 5SM BR CLR 05/03 A3021 RMK AO2 T00500031
Observed Flight Rules
Nov-17 @ 23:15 UTC
(21 minutes ago)
MVFR
Wind Visibility
20° at 4 knots 5 miles
Clouds
  • Clear skies
Conditions
  • Mist
Temperature Dewpoint
5°C / 41°F 3°C / 37°F
Humidity Altimeter Pressure
87% 30.21" Hg 1023 hPa